Terminal Aerodrome Forecast
Issued by NWS Milwaukee/Sullivan, WI

Home | Current Version | Previous Version | Text Only | Print | Product List | Glossary On
Versions: 1 2 3 4 5 6 7 8 9 10 11 12 13 14 15 16 17 18 19 20 21 22 23 24 25 26 27 28
000
FTUS43 KMKX 191730
TAFMSN
TAF
KMSN 191730Z 1918/2018 11006KT P6SM FEW250
     FM192100 14006KT P6SM FEW150 SCT250
     FM200900 12005KT 3SM BR BKN140
     FM201000 13005KT 1 1/2SM BR BKN025
     FM201200 13006KT 1/2SM FG BKN008
     FM201400 15006KT 3/4SM BR BKN003=

USA.gov is the U.S. government's official web portal to all federal, state and local government web resources and services.